PDT,Max TemperatureF,Mean TemperatureF,Min TemperatureF,Max Dew PointF,MeanDew PointF,Min DewpointF,Max Humidity, Mean Humidity, Min Humidity, Max Sea Level PressureIn, Mean Sea Level PressureIn, Min Sea Level PressureIn, Max VisibilityMiles, Mean VisibilityMiles, Min VisibilityMiles, Max Wind SpeedMPH, Mean Wind SpeedMPH, Max Gust SpeedMPH,PrecipitationIn, CloudCover, Events, WindDirDegrees
2011-10-1,76,63,50,49,45,39,77,56,35,29.91,29.80,29.73,10,10,10,20,6,23,0.00,1,,234
2011-10-2,72,56,40,47,44,39,100,69,38,29.99,29.91,29.81,10,10,10,10,3,17,0.00,2,,59
2011-10-3,70,62,54,50,46,43,83,60,37,29.83,29.79,29.76,10,10,8,17,6,18,0.00,2,,194
2011-10-4,61,56,50,52,49,43,100,76,51,29.76,29.68,29.51,10,10,8,15,8,18,0.25,5,Rain,157
2011-10-5,58,54,50,52,49,46,100,86,72,29.63,29.50,29.42,10,10,5,15,7,17,0.03,8,Rain,218
2011-10-6,65,58,50,48,45,41,89,67,44,29.87,29.75,29.62,10,10,9,16,8,20,T,8,,267
2011-10-7,71,59,46,42,40,37,77,53,29,30.16,29.98,29.86,10,10,10,23,9,29,0.00,4,,283
2011-10-8,65,52,39,43,41,39,96,70,43,30.26,30.18,30.10,10,10,10,12,3,13,0.00,2,,159
2011-10-9,64,53,41,49,45,40,100,78,56,30.09,29.99,29.83,10,10,9,8,2,12,0.03,4,Rain,111
2011-10-10,56,51,46,53,50,46,100,93,86,29.81,29.66,29.57,10,10,8,15,5,18,0.03,5,Rain,146
2011-10-11,68,59,50,50,43,39,89,63,37,30.01,29.77,29.60,10,10,10,25,13,32,0.00,2,,214
2011-10-12,63,56,48,41,37,32,77,56,35,30.19,30.15,30.06,10,10,10,21,11,24,0.00,1,,243
2011-10-13,63,50,36,41,36,30,92,62,32,30.33,30.16,30.08,10,10,9,10,4,14,0.00,1,,312
2011-10-14,59,53,46,44,38,36,86,63,40,30.07,30.03,29.98,10,10,5,12,5,14,0.01,8,,358
2011-10-15,62,49,36,45,41,36,100,73,46,30.23,30.08,30.00,10,10,9,9,3,12,0.00,1,,358
2011-10-16,62,50,38,45,39,37,100,70,39,30.35,30.14,30.04,10,10,6,10,5,14,0.00,0,,116
2011-10-17,62,49,36,45,39,35,100,70,39,30.55,30.38,30.28,10,6,0,9,3,10,0.00,3,Fog,30
2011-10-18,68,53,37,44,38,35,100,66,32,30.57,30.31,30.06,10,9,7,14,7,17,0.00,0,,14
2011-10-19,63,50,37,46,40,35,93,70,46,30.15,29.99,29.94,10,10,6,12,4,15,0.00,0,,100
2011-10-20,66,53,39,47,43,38,100,71,42,30.21,30.05,29.99,10,9,5,13,4,16,0.00,1,,181
2011-10-21,62,51,40,49,45,39,100,80,60,30.17,30.13,30.06,10,10,8,15,6,23,0.00,3,,195
2011-10-22,73,60,46,50,47,44,93,66,38,30.17,30.10,30.05,10,9,4,23,10,30,0.00,3,,209
2011-10-23,62,52,42,49,35,27,72,50,27,30.14,30.08,30.01,10,9,2,22,6,26,0.00,0,,249
2011-10-24,61,48,35,33,27,22,76,50,23,30.42,30.17,30.01,10,8,3,12,4,15,0.00,1,,289
2011-10-25,59,42,25,29,23,19,81,52,23,30.58,30.44,30.30,10,10,4,10,1,15,0.00,0,,341
2011-10-26,49,34,19,31,24,16,84,65,46,30.43,30.31,30.17,10,9,2,16,5,22,0.00,1,,135
2011-10-27,53,37,20,29,24,18,92,65,38,30.34,30.29,30.18,10,10,10,10,4,15,0.00,0,,6
2011-10-28,46,37,28,32,27,22,82,68,53,30.26,30.09,29.94,10,10,10,12,5,14,0.00,2,,83
2011-10-29,59,42,25,35,31,23,92,65,37,30.42,30.22,30.00,10,10,8,13,4,15,0.00,0,,158
2011-10-30,54,41,28,39,34,27,92,73,54,30.38,30.10,29.99,10,10,10,15,3,20,0.00,2,,13
2011-10-31,60,49,38,40,27,20,70,47,24,30.47,30.22,30.01,10,10,10,21,10,26,0.00,0,,277